Kristina — SFB8756 — position and weather

sailwx.info

Track history (hours):
 
Tides and Currents Weather Stations Pressure Air Temp Water Temp Dewpoint Dewpoint Depression Visibility Wind Speed Wind Dir Waves Ship Positions

Kristina

Last reported at 2017-Jan-19 23:33 UTC. Time now 2017-Jan-19 23:38 UTC.
Position N 55°45' E 012°54'.

Length 11 m; draft 2 m.

Type: Fishing. MMSI: 265630900.

Date/timePositionNaut miles runAvg speedWind from/ knotsBaromVisibWave heightAir tempDewpointWater temp
2017-Jan-19 23:33N 55°45' E 012°54'0 0.0
2017-Jan-19 22:33N 55°45' E 012°54'0 0.0
2017-Jan-19 21:33N 55°45' E 012°54'0 0.0
2017-Jan-19 20:33N 55°45' E 012°54'0 0.0
2017-Jan-19 19:33N 55°45' E 012°54'0 0.0
2017-Jan-19 18:33N 55°45' E 012°54'1 1.0
2017-Jan-19 17:33N 55°46' E 012°52'5 4.6
2017-Jan-19 16:34N 55°49' E 012°47'0 0.4
2017-Jan-19 15:33N 55°49' E 012°48'2 2.0
2017-Jan-19 14:33N 55°47' E 012°45'1 1.4
2017-Jan-19 13:33N 55°49' E 012°44'1 0.8
2017-Jan-19 12:33N 55°48' E 012°44'2 2.0
2017-Jan-19 11:33N 55°49' E 012°48'0 0.3
2017-Jan-19 10:33N 55°48' E 012°48'0 0.2
2017-Jan-19 09:33N 55°49' E 012°48'1 0.7
2017-Jan-19 08:33N 55°49' E 012°47'1 0.7
2017-Jan-19 07:34N 55°49' E 012°47'0 0.2
2017-Jan-19 06:33N 55°49' E 012°47'4 4.5
2017-Jan-19 05:33N 55°46' E 012°53'1 0.6
2017-Jan-19 04:33N 55°45' E 012°54'0 0.0
2017-Jan-19 03:33N 55°45' E 012°54'0 0.0
2017-Jan-19 02:33N 55°45' E 012°54'0 0.0
2017-Jan-19 01:33N 55°45' E 012°54'0 0.0
2017-Jan-19 00:33N 55°45' E 012°54'0 0.0
2017-Jan-18 23:31N 55°45' E 012°54'0 0.0
2017-Jan-18 22:33N 55°45' E 012°54'0 0.0
2017-Jan-18 21:33N 55°45' E 012°54'0 0.0
2017-Jan-18 20:33N 55°45' E 012°54'0 0.0
2017-Jan-18 19:33N 55°45' E 012°54'0 0.0
2017-Jan-18 18:33N 55°45' E 012°54'0 0.0
2017-Jan-18 17:33N 55°45' E 012°54'4 4.2
2017-Jan-18 16:33N 55°48' E 012°49'1 0.9
2017-Jan-18 15:33N 55°49' E 012°47'0 0.4
2017-Jan-18 14:33N 55°49' E 012°47'0 0.5
2017-Jan-18 13:33N 55°49' E 012°47'2 1.8
2017-Jan-18 12:34N 55°47' E 012°45'1 0.6
2017-Jan-18 11:29N 55°48' E 012°44'1 0.7
2017-Jan-18 10:33N 55°49' E 012°44'2 2.1
2017-Jan-18 09:33N 55°49' E 012°48'0 0.3
2017-Jan-18 08:33N 55°49' E 012°47'2 1.8
2017-Jan-18 07:34N 55°48' E 012°44'2 1.7
2017-Jan-18 06:33N 55°49' E 012°47'5 5.3
2017-Jan-18 05:33N 55°45' E 012°54'0 0.0
2017-Jan-18 04:33N 55°45' E 012°54'0 0.0
2017-Jan-18 03:34N 55°45' E 012°54'0 0.0
2017-Jan-18 02:33N 55°45' E 012°54'0 0.0
2017-Jan-18 01:33N 55°45' E 012°54'0 0.0
2017-Jan-18 00:33N 55°45' E 012°54'0 0.0
2017-Jan-17 23:33N 55°45' E 012°54'0 0.0
2017-Jan-17 22:33N 55°45' E 012°54'0 0.0
2017-Jan-17 21:33N 55°45' E 012°54'0 0.0
2017-Jan-17 20:33N 55°45' E 012°54'0 0.0
2017-Jan-17 19:33N 55°45' E 012°54'0 0.0
2017-Jan-17 18:33N 55°45' E 012°54'0 0.0
2017-Jan-17 17:33N 55°45' E 012°54'0 0.0
2017-Jan-17 16:33N 55°45' E 012°54'0 0.0
2017-Jan-17 15:33N 55°45' E 012°54'0 0.0
2017-Jan-17 14:34N 55°45' E 012°54'0 0.0
2017-Jan-17 13:33N 55°45' E 012°54'0 0.0
2017-Jan-17 12:33N 55°45' E 012°54'0 0.0
2017-Jan-17 11:33N 55°45' E 012°54'0 0.0
2017-Jan-17 10:33N 55°45' E 012°54'0 0.0
2017-Jan-17 09:33N 55°45' E 012°54'0 0.0
2017-Jan-17 08:33N 55°45' E 012°54'3 2.6
2017-Jan-17 07:34N 55°47' E 012°51'3 2.8
2017-Jan-17 06:34N 55°49' E 012°47'1 0.6
2017-Jan-17 05:34N 55°49' E 012°48'7 7.0
2017-Jan-17 04:33N 55°42' E 012°53'8 6.8
2017-Jan-17 03:26N 55°35' E 012°50'6 7.4
2017-Jan-17 02:33N 55°29' E 012°44'7 7.0
2017-Jan-17 01:33N 55°22' E 012°43'6 5.6
2017-Jan-17 00:30N 55°17' E 012°49'32 7.4
2017-Jan-16 20:13N 55°19' E 013°45'5 7.7
2017-Jan-16 19:32N 55°20' E 013°54'7 7.6
2017-Jan-16 18:33N 55°21' E 014°07'7 6.9
2017-Jan-16 17:32N 55°25' E 014°17'7 7.5
2017-Jan-16 16:32N 55°31' E 014°24'9 7.3
2017-Jan-16 15:20N 55°40' E 014°29'  
Track history (hours):
 
Tides and Currents Weather Stations Pressure Air Temp Water Temp Dewpoint Dewpoint Depression Visibility Wind Speed Wind Dir Waves Ship Positions

Kristina

Last reported at 2017-Jan-19 23:33 UTC. Time now 2017-Jan-19 23:38 UTC.
Position N 55°45' E 012°54'.

Length 11 m; draft 2 m.

Type: Fishing. MMSI: 265630900.

Date/timePositionNaut miles runAvg speedWind from/ knotsBaromVisibWave heightAir tempDewpointWater temp
2017-Jan-19 23:33N 55°45' E 012°54'0 0.0
2017-Jan-19 22:33N 55°45' E 012°54'0 0.0
2017-Jan-19 21:33N 55°45' E 012°54'0 0.0
2017-Jan-19 20:33N 55°45' E 012°54'0 0.0
2017-Jan-19 19:33N 55°45' E 012°54'0 0.0
2017-Jan-19 18:33N 55°45' E 012°54'1 1.0
2017-Jan-19 17:33N 55°46' E 012°52'5 4.6
2017-Jan-19 16:34N 55°49' E 012°47'0 0.4
2017-Jan-19 15:33N 55°49' E 012°48'2 2.0
2017-Jan-19 14:33N 55°47' E 012°45'1 1.4
2017-Jan-19 13:33N 55°49' E 012°44'1 0.8
2017-Jan-19 12:33N 55°48' E 012°44'2 2.0
2017-Jan-19 11:33N 55°49' E 012°48'0 0.3
2017-Jan-19 10:33N 55°48' E 012°48'0 0.2
2017-Jan-19 09:33N 55°49' E 012°48'1 0.7
2017-Jan-19 08:33N 55°49' E 012°47'1 0.7
2017-Jan-19 07:34N 55°49' E 012°47'0 0.2
2017-Jan-19 06:33N 55°49' E 012°47'4 4.5
2017-Jan-19 05:33N 55°46' E 012°53'1 0.6
2017-Jan-19 04:33N 55°45' E 012°54'0 0.0
2017-Jan-19 03:33N 55°45' E 012°54'0 0.0
2017-Jan-19 02:33N 55°45' E 012°54'0 0.0
2017-Jan-19 01:33N 55°45' E 012°54'0 0.0
2017-Jan-19 00:33N 55°45' E 012°54'0 0.0
2017-Jan-18 23:31N 55°45' E 012°54'0 0.0
2017-Jan-18 22:33N 55°45' E 012°54'0 0.0
2017-Jan-18 21:33N 55°45' E 012°54'0 0.0
2017-Jan-18 20:33N 55°45' E 012°54'0 0.0
2017-Jan-18 19:33N 55°45' E 012°54'0 0.0
2017-Jan-18 18:33N 55°45' E 012°54'0 0.0
2017-Jan-18 17:33N 55°45' E 012°54'4 4.2
2017-Jan-18 16:33N 55°48' E 012°49'1 0.9
2017-Jan-18 15:33N 55°49' E 012°47'0 0.4
2017-Jan-18 14:33N 55°49' E 012°47'0 0.5
2017-Jan-18 13:33N 55°49' E 012°47'2 1.8
2017-Jan-18 12:34N 55°47' E 012°45'1 0.6
2017-Jan-18 11:29N 55°48' E 012°44'1 0.7
2017-Jan-18 10:33N 55°49' E 012°44'2 2.1
2017-Jan-18 09:33N 55°49' E 012°48'0 0.3
2017-Jan-18 08:33N 55°49' E 012°47'2 1.8
2017-Jan-18 07:34N 55°48' E 012°44'2 1.7
2017-Jan-18 06:33N 55°49' E 012°47'5 5.3
2017-Jan-18 05:33N 55°45' E 012°54'0 0.0
2017-Jan-18 04:33N 55°45' E 012°54'0 0.0
2017-Jan-18 03:34N 55°45' E 012°54'0 0.0
2017-Jan-18 02:33N 55°45' E 012°54'0 0.0
2017-Jan-18 01:33N 55°45' E 012°54'0 0.0
2017-Jan-18 00:33N 55°45' E 012°54'0 0.0
2017-Jan-17 23:33N 55°45' E 012°54'0 0.0
2017-Jan-17 22:33N 55°45' E 012°54'0 0.0
2017-Jan-17 21:33N 55°45' E 012°54'0 0.0
2017-Jan-17 20:33N 55°45' E 012°54'0 0.0
2017-Jan-17 19:33N 55°45' E 012°54'0 0.0
2017-Jan-17 18:33N 55°45' E 012°54'0 0.0
2017-Jan-17 17:33N 55°45' E 012°54'0 0.0
2017-Jan-17 16:33N 55°45' E 012°54'0 0.0
2017-Jan-17 15:33N 55°45' E 012°54'0 0.0
2017-Jan-17 14:34N 55°45' E 012°54'0 0.0
2017-Jan-17 13:33N 55°45' E 012°54'0 0.0
2017-Jan-17 12:33N 55°45' E 012°54'0 0.0
2017-Jan-17 11:33N 55°45' E 012°54'0 0.0
2017-Jan-17 10:33N 55°45' E 012°54'0 0.0
2017-Jan-17 09:33N 55°45' E 012°54'0 0.0
2017-Jan-17 08:33N 55°45' E 012°54'3 2.6
2017-Jan-17 07:34N 55°47' E 012°51'3 2.8
2017-Jan-17 06:34N 55°49' E 012°47'1 0.6
2017-Jan-17 05:34N 55°49' E 012°48'7 7.0
2017-Jan-17 04:33N 55°42' E 012°53'8 6.8
2017-Jan-17 03:26N 55°35' E 012°50'6 7.4
2017-Jan-17 02:33N 55°29' E 012°44'7 7.0
2017-Jan-17 01:33N 55°22' E 012°43'6 5.6
2017-Jan-17 00:30N 55°17' E 012°49'32 7.4
2017-Jan-16 20:13N 55°19' E 013°45'5 7.7
2017-Jan-16 19:32N 55°20' E 013°54'7 7.6
2017-Jan-16 18:33N 55°21' E 014°07'7 6.9
2017-Jan-16 17:32N 55°25' E 014°17'7 7.5
2017-Jan-16 16:32N 55°31' E 014°24'9 7.3
2017-Jan-16 15:20N 55°40' E 014°29'  

Dump ship's entire track history